sensor_id;sensor_type;location;lat;lon;timestamp;P1;durP1;ratioP1;P2;durP2;ratioP2
21771;SDS011;11047;47.904;8.110;2023-10-31T00:01:39;2.85;;;0.82;;
21771;SDS011;11047;47.904;8.110;2023-10-31T00:04:06;0.47;;;0.40;;
21771;SDS011;11047;47.904;8.110;2023-10-31T00:06:35;0.30;;;0.30;;
21771;SDS011;11047;47.904;8.110;2023-10-31T00:09:01;0.25;;;0.25;;
21771;SDS011;11047;47.904;8.110;2023-10-31T00:11:28;0.73;;;0.40;;
21771;SDS011;11047;47.904;8.110;2023-10-31T00:13:55;0.70;;;0.65;;
21771;SDS011;11047;47.904;8.110;2023-10-31T00:16:22;0.50;;;0.30;;
21771;SDS011;11047;47.904;8.110;2023-10-31T00:18:49;0.45;;;0.35;;
21771;SDS011;11047;47.904;8.110;2023-10-31T00:21:16;0.40;;;0.40;;
21771;SDS011;11047;47.904;8.110;2023-10-31T00:23:44;1.00;;;0.73;;
21771;SDS011;11047;47.904;8.110;2023-10-31T00:26:12;1.17;;;0.75;;
21771;SDS011;11047;47.904;8.110;2023-10-31T00:28:38;0.82;;;0.38;;
21771;SDS011;11047;47.904;8.110;2023-10-31T00:31:05;0.55;;;0.30;;
21771;SDS011;11047;47.904;8.110;2023-10-31T00:33:33;2.35;;;0.90;;
21771;SDS011;11047;47.904;8.110;2023-10-31T00:36:00;1.75;;;0.50;;
21771;SDS011;11047;47.904;8.110;2023-10-31T00:38:27;2.45;;;0.85;;
21771;SDS011;11047;47.904;8.110;2023-10-31T00:40:55;1.98;;;0.55;;
21771;SDS011;11047;47.904;8.110;2023-10-31T00:43:23;0.75;;;0.40;;
21771;SDS011;11047;47.904;8.110;2023-10-31T00:45:50;6.28;;;1.27;;
21771;SDS011;11047;47.904;8.110;2023-10-31T00:48:16;0.60;;;0.45;;
21771;SDS011;11047;47.904;8.110;2023-10-31T00:50:44;2.85;;;0.50;;
21771;SDS011;11047;47.904;8.110;2023-10-31T00:53:11;1.90;;;0.80;;
21771;SDS011;11047;47.904;8.110;2023-10-31T00:55:39;1.02;;;0.45;;
21771;SDS011;11047;47.904;8.110;2023-10-31T00:58:07;0.90;;;0.50;;
21771;SDS011;11047;47.904;8.110;2023-10-31T01:00:34;1.85;;;0.40;;
21771;SDS011;11047;47.904;8.110;2023-10-31T01:03:02;2.17;;;0.57;;
21771;SDS011;11047;47.904;8.110;2023-10-31T01:05:29;1.33;;;0.70;;
21771;SDS011;11047;47.904;8.110;2023-10-31T01:07:56;1.65;;;0.40;;
21771;SDS011;11047;47.904;8.110;2023-10-31T01:10:23;0.75;;;0.32;;
21771;SDS011;11047;47.904;8.110;2023-10-31T01:12:50;2.75;;;0.85;;
21771;SDS011;11047;47.904;8.110;2023-10-31T01:15:18;0.43;;;0.40;;
21771;SDS011;11047;47.904;8.110;2023-10-31T01:17:45;0.65;;;0.30;;
21771;SDS011;11047;47.904;8.110;2023-10-31T01:20:12;1.42;;;0.32;;
21771;SDS011;11047;47.904;8.110;2023-10-31T01:22:39;0.20;;;0.20;;
21771;SDS011;11047;47.904;8.110;2023-10-31T01:25:06;1.75;;;0.25;;
21771;SDS011;11047;47.904;8.110;2023-10-31T01:27:35;0.38;;;0.38;;
21771;SDS011;11047;47.904;8.110;2023-10-31T01:30:02;2.25;;;0.52;;
21771;SDS011;11047;47.904;8.110;2023-10-31T01:32:31;0.57;;;0.55;;
21771;SDS011;11047;47.904;8.110;2023-10-31T01:34:58;0.73;;;0.40;;
21771;SDS011;11047;47.904;8.110;2023-10-31T01:37:25;1.17;;;0.73;;
21771;SDS011;11047;47.904;8.110;2023-10-31T01:39:52;3.22;;;0.98;;
21771;SDS011;11047;47.904;8.110;2023-10-31T01:42:18;1.08;;;0.55;;
21771;SDS011;11047;47.904;8.110;2023-10-31T01:44:45;0.90;;;0.50;;
21771;SDS011;11047;47.904;8.110;2023-10-31T01:47:13;1.15;;;0.30;;
21771;SDS011;11047;47.904;8.110;2023-10-31T01:49:41;2.58;;;1.40;;
21771;SDS011;11047;47.904;8.110;2023-10-31T01:52:08;0.40;;;0.40;;
21771;SDS011;11047;47.904;8.110;2023-10-31T01:54:35;1.48;;;0.35;;
21771;SDS011;11047;47.904;8.110;2023-10-31T01:57:03;1.50;;;0.45;;
21771;SDS011;11047;47.904;8.110;2023-10-31T01:59:31;0.40;;;0.40;;
21771;SDS011;11047;47.904;8.110;2023-10-31T02:01:58;0.20;;;0.20;;
21771;SDS011;11047;47.904;8.110;2023-10-31T02:04:26;0.43;;;0.20;;
21771;SDS011;11047;47.904;8.110;2023-10-31T02:06:55;0.20;;;0.20;;
21771;SDS011;11047;47.904;8.110;2023-10-31T02:09:22;0.40;;;0.40;;
21771;SDS011;11047;47.904;8.110;2023-10-31T02:11:51;1.20;;;0.30;;
21771;SDS011;11047;47.904;8.110;2023-10-31T02:14:18;0.52;;;0.32;;
21771;SDS011;11047;47.904;8.110;2023-10-31T02:16:45;0.30;;;0.30;;
21771;SDS011;11047;47.904;8.110;2023-10-31T02:19:12;0.28;;;0.20;;
21771;SDS011;11047;47.904;8.110;2023-10-31T02:21:43;0.25;;;0.25;;
21771;SDS011;11047;47.904;8.110;2023-10-31T02:24:10;1.25;;;0.20;;
21771;SDS011;11047;47.904;8.110;2023-10-31T02:26:37;0.30;;;0.17;;
21771;SDS011;11047;47.904;8.110;2023-10-31T02:29:04;0.10;;;0.10;;
21771;SDS011;11047;47.904;8.110;2023-10-31T02:31:31;0.20;;;0.20;;
21771;SDS011;11047;47.904;8.110;2023-10-31T02:33:59;0.47;;;0.32;;
21771;SDS011;11047;47.904;8.110;2023-10-31T02:36:25;0.13;;;0.13;;
21771;SDS011;11047;47.904;8.110;2023-10-31T02:38:54;1.52;;;0.30;;
21771;SDS011;11047;47.904;8.110;2023-10-31T02:41:20;0.90;;;0.35;;
21771;SDS011;11047;47.904;8.110;2023-10-31T02:43:46;0.57;;;0.57;;
21771;SDS011;11047;47.904;8.110;2023-10-31T02:46:13;1.35;;;0.40;;
21771;SDS011;11047;47.904;8.110;2023-10-31T02:48:41;2.47;;;0.75;;
21771;SDS011;11047;47.904;8.110;2023-10-31T02:51:08;0.25;;;0.25;;
21771;SDS011;11047;47.904;8.110;2023-10-31T02:53:35;0.85;;;0.70;;
21771;SDS011;11047;47.904;8.110;2023-10-31T02:56:03;1.70;;;0.63;;
21771;SDS011;11047;47.904;8.110;2023-10-31T02:58:30;1.27;;;0.50;;
21771;SDS011;11047;47.904;8.110;2023-10-31T03:00:57;1.27;;;0.50;;
21771;SDS011;11047;47.904;8.110;2023-10-31T03:03:24;1.02;;;0.93;;
21771;SDS011;11047;47.904;8.110;2023-10-31T03:05:51;2.25;;;0.73;;
21771;SDS011;11047;47.904;8.110;2023-10-31T03:08:19;2.65;;;0.75;;
21771;SDS011;11047;47.904;8.110;2023-10-31T03:10:47;0.73;;;0.40;;
21771;SDS011;11047;47.904;8.110;2023-10-31T03:13:17;1.63;;;0.60;;
21771;SDS011;11047;47.904;8.110;2023-10-31T03:15:45;0.38;;;0.30;;
21771;SDS011;11047;47.904;8.110;2023-10-31T03:18:12;1.30;;;0.60;;
21771;SDS011;11047;47.904;8.110;2023-10-31T03:20:40;1.23;;;0.82;;
21771;SDS011;11047;47.904;8.110;2023-10-31T03:23:09;0.90;;;0.45;;
21771;SDS011;11047;47.904;8.110;2023-10-31T03:25:36;0.70;;;0.50;;
21771;SDS011;11047;47.904;8.110;2023-10-31T03:28:03;1.17;;;0.40;;
21771;SDS011;11047;47.904;8.110;2023-10-31T03:30:32;0.60;;;0.60;;
21771;SDS011;11047;47.904;8.110;2023-10-31T03:32:59;1.33;;;0.80;;
21771;SDS011;11047;47.904;8.110;2023-10-31T03:35:26;0.82;;;0.65;;
21771;SDS011;11047;47.904;8.110;2023-10-31T03:37:53;0.98;;;0.40;;
21771;SDS011;11047;47.904;8.110;2023-10-31T03:40:20;1.55;;;0.70;;
21771;SDS011;11047;47.904;8.110;2023-10-31T03:42:46;2.38;;;1.52;;
21771;SDS011;11047;47.904;8.110;2023-10-31T03:45:13;2.40;;;0.90;;
21771;SDS011;11047;47.904;8.110;2023-10-31T03:47:42;0.73;;;0.70;;
21771;SDS011;11047;47.904;8.110;2023-10-31T03:50:09;4.03;;;0.60;;
21771;SDS011;11047;47.904;8.110;2023-10-31T03:52:36;3.63;;;0.70;;
21771;SDS011;11047;47.904;8.110;2023-10-31T03:55:03;0.68;;;0.50;;
21771;SDS011;11047;47.904;8.110;2023-10-31T03:57:31;1.30;;;0.50;;
21771;SDS011;11047;47.904;8.110;2023-10-31T03:59:57;1.38;;;0.50;;
21771;SDS011;11047;47.904;8.110;2023-10-31T04:02:24;2.50;;;0.52;;
21771;SDS011;11047;47.904;8.110;2023-10-31T04:04:52;1.42;;;0.70;;
21771;SDS011;11047;47.904;8.110;2023-10-31T04:07:20;0.40;;;0.40;;
21771;SDS011;11047;47.904;8.110;2023-10-31T04:09:46;3.45;;;0.98;;
21771;SDS011;11047;47.904;8.110;2023-10-31T04:12:13;2.40;;;0.50;;
21771;SDS011;11047;47.904;8.110;2023-10-31T04:14:40;1.58;;;0.52;;
21771;SDS011;11047;47.904;8.110;2023-10-31T04:17:07;1.90;;;0.95;;
21771;SDS011;11047;47.904;8.110;2023-10-31T04:19:34;2.15;;;0.70;;
21771;SDS011;11047;47.904;8.110;2023-10-31T04:22:04;1.45;;;0.80;;
21771;SDS011;11047;47.904;8.110;2023-10-31T04:24:31;1.42;;;0.68;;
21771;SDS011;11047;47.904;8.110;2023-10-31T04:26:57;3.63;;;0.70;;
21771;SDS011;11047;47.904;8.110;2023-10-31T04:29:24;3.20;;;0.40;;
21771;SDS011;11047;47.904;8.110;2023-10-31T04:31:51;3.47;;;0.65;;
21771;SDS011;11047;47.904;8.110;2023-10-31T04:34:18;3.58;;;0.47;;
21771;SDS011;11047;47.904;8.110;2023-10-31T04:36:45;2.58;;;0.50;;
21771;SDS011;11047;47.904;8.110;2023-10-31T04:39:13;0.95;;;0.55;;
21771;SDS011;11047;47.904;8.110;2023-10-31T04:41:40;2.40;;;0.80;;
21771;SDS011;11047;47.904;8.110;2023-10-31T04:44:07;7.90;;;3.00;;
21771;SDS011;11047;47.904;8.110;2023-10-31T04:46:34;5.40;;;0.85;;
21771;SDS011;11047;47.904;8.110;2023-10-31T04:49:01;2.58;;;1.02;;
21771;SDS011;11047;47.904;8.110;2023-10-31T04:51:32;2.05;;;0.60;;
21771;SDS011;11047;47.904;8.110;2023-10-31T04:53:59;1.75;;;0.70;;
21771;SDS011;11047;47.904;8.110;2023-10-31T04:56:28;2.28;;;0.65;;
21771;SDS011;11047;47.904;8.110;2023-10-31T04:58:55;2.58;;;0.47;;
21771;SDS011;11047;47.904;8.110;2023-10-31T05:01:22;1.35;;;0.50;;
21771;SDS011;11047;47.904;8.110;2023-10-31T05:03:49;6.70;;;3.00;;
21771;SDS011;11047;47.904;8.110;2023-10-31T05:06:18;3.28;;;2.92;;
21771;SDS011;11047;47.904;8.110;2023-10-31T05:08:46;3.53;;;0.55;;
21771;SDS011;11047;47.904;8.110;2023-10-31T05:11:13;1.77;;;0.95;;
21771;SDS011;11047;47.904;8.110;2023-10-31T05:13:44;7.30;;;2.35;;
21771;SDS011;11047;47.904;8.110;2023-10-31T05:16:11;2.33;;;0.80;;
21771;SDS011;11047;47.904;8.110;2023-10-31T05:18:38;4.15;;;0.90;;
21771;SDS011;11047;47.904;8.110;2023-10-31T05:21:05;4.20;;;1.08;;
21771;SDS011;11047;47.904;8.110;2023-10-31T05:23:32;2.20;;;0.77;;
21771;SDS011;11047;47.904;8.110;2023-10-31T05:25:59;6.47;;;3.10;;
21771;SDS011;11047;47.904;8.110;2023-10-31T05:28:26;5.53;;;1.88;;
21771;SDS011;11047;47.904;8.110;2023-10-31T05:30:54;5.28;;;1.48;;
21771;SDS011;11047;47.904;8.110;2023-10-31T05:33:21;3.83;;;1.30;;
21771;SDS011;11047;47.904;8.110;2023-10-31T05:35:48;5.00;;;1.17;;
21771;SDS011;11047;47.904;8.110;2023-10-31T05:38:15;3.72;;;1.10;;
21771;SDS011;11047;47.904;8.110;2023-10-31T05:40:42;2.55;;;1.10;;
21771;SDS011;11047;47.904;8.110;2023-10-31T05:43:09;3.03;;;1.42;;
21771;SDS011;11047;47.904;8.110;2023-10-31T05:45:36;3.15;;;0.88;;
21771;SDS011;11047;47.904;8.110;2023-10-31T05:48:05;4.28;;;1.20;;
21771;SDS011;11047;47.904;8.110;2023-10-31T05:50:32;4.15;;;0.70;;
21771;SDS011;11047;47.904;8.110;2023-10-31T05:52:59;2.28;;;0.73;;
21771;SDS011;11047;47.904;8.110;2023-10-31T05:55:26;2.60;;;0.75;;
21771;SDS011;11047;47.904;8.110;2023-10-31T05:57:54;7.88;;;0.80;;
21771;SDS011;11047;47.904;8.110;2023-10-31T06:00:21;4.82;;;0.95;;
21771;SDS011;11047;47.904;8.110;2023-10-31T06:02:48;5.32;;;1.27;;
21771;SDS011;11047;47.904;8.110;2023-10-31T06:05:17;4.72;;;0.90;;
21771;SDS011;11047;47.904;8.110;2023-10-31T06:07:44;2.90;;;1.23;;
21771;SDS011;11047;47.904;8.110;2023-10-31T06:10:12;3.35;;;0.65;;
21771;SDS011;11047;47.904;8.110;2023-10-31T06:12:42;5.88;;;0.90;;
21771;SDS011;11047;47.904;8.110;2023-10-31T06:15:10;2.72;;;0.95;;
21771;SDS011;11047;47.904;8.110;2023-10-31T06:17:37;1.95;;;0.70;;
21771;SDS011;11047;47.904;8.110;2023-10-31T06:20:05;4.80;;;1.00;;
21771;SDS011;11047;47.904;8.110;2023-10-31T06:22:35;4.10;;;1.10;;
21771;SDS011;11047;47.904;8.110;2023-10-31T06:25:03;6.93;;;1.40;;
21771;SDS011;11047;47.904;8.110;2023-10-31T06:27:31;6.65;;;1.08;;
21771;SDS011;11047;47.904;8.110;2023-10-31T06:29:58;4.05;;;0.85;;
21771;SDS011;11047;47.904;8.110;2023-10-31T06:32:26;2.33;;;0.70;;
21771;SDS011;11047;47.904;8.110;2023-10-31T06:34:53;4.63;;;1.40;;
21771;SDS011;11047;47.904;8.110;2023-10-31T06:37:20;4.97;;;1.30;;
21771;SDS011;11047;47.904;8.110;2023-10-31T06:39:50;2.55;;;0.93;;
21771;SDS011;11047;47.904;8.110;2023-10-31T06:42:17;7.50;;;2.10;;
21771;SDS011;11047;47.904;8.110;2023-10-31T06:44:44;11.63;;;1.38;;
21771;SDS011;11047;47.904;8.110;2023-10-31T06:47:11;4.18;;;0.85;;
21771;SDS011;11047;47.904;8.110;2023-10-31T06:49:39;2.90;;;1.00;;
21771;SDS011;11047;47.904;8.110;2023-10-31T06:52:06;6.88;;;0.70;;
21771;SDS011;11047;47.904;8.110;2023-10-31T06:54:50;1.73;;;0.60;;
21771;SDS011;11047;47.904;8.110;2023-10-31T06:59:57;1.98;;;1.05;;
21771;SDS011;11047;47.904;8.110;2023-10-31T07:02:38;1.10;;;0.70;;
21771;SDS011;11047;47.904;8.110;2023-10-31T07:05:19;3.13;;;0.88;;
21771;SDS011;11047;47.904;8.110;2023-10-31T07:07:46;3.35;;;0.98;;
21771;SDS011;11047;47.904;8.110;2023-10-31T07:23:10;4.20;;;1.92;;
21771;SDS011;11047;47.904;8.110;2023-10-31T07:25:37;6.68;;;2.38;;
21771;SDS011;11047;47.904;8.110;2023-10-31T07:28:04;5.80;;;2.72;;
21771;SDS011;11047;47.904;8.110;2023-10-31T07:30:31;4.38;;;2.28;;
21771;SDS011;11047;47.904;8.110;2023-10-31T07:32:58;3.67;;;1.90;;
21771;SDS011;11047;47.904;8.110;2023-10-31T07:35:25;1.80;;;1.30;;
21771;SDS011;11047;47.904;8.110;2023-10-31T07:37:52;3.15;;;1.30;;
21771;SDS011;11047;47.904;8.110;2023-10-31T07:40:20;2.50;;;1.15;;
21771;SDS011;11047;47.904;8.110;2023-10-31T07:42:47;2.88;;;0.90;;
21771;SDS011;11047;47.904;8.110;2023-10-31T07:48:36;6.25;;;1.00;;
21771;SDS011;11047;47.904;8.110;2023-10-31T07:51:03;4.85;;;1.00;;
21771;SDS011;11047;47.904;8.110;2023-10-31T07:53:31;5.30;;;1.00;;
21771;SDS011;11047;47.904;8.110;2023-10-31T07:55:59;2.35;;;0.90;;
21771;SDS011;11047;47.904;8.110;2023-10-31T07:58:26;0.90;;;0.80;;
21771;SDS011;11047;47.904;8.110;2023-10-31T08:00:53;2.03;;;0.90;;
21771;SDS011;11047;47.904;8.110;2023-10-31T08:03:20;3.30;;;0.60;;
21771;SDS011;11047;47.904;8.110;2023-10-31T08:05:47;1.50;;;0.70;;
21771;SDS011;11047;47.904;8.110;2023-10-31T08:08:13;4.80;;;0.82;;
21771;SDS011;11047;47.904;8.110;2023-10-31T08:10:40;0.95;;;0.60;;
21771;SDS011;11047;47.904;8.110;2023-10-31T08:13:09;0.73;;;0.40;;
21771;SDS011;11047;47.904;8.110;2023-10-31T08:15:35;1.98;;;0.63;;
21771;SDS011;11047;47.904;8.110;2023-10-31T08:18:02;2.60;;;0.50;;
21771;SDS011;11047;47.904;8.110;2023-10-31T08:20:29;1.02;;;0.38;;
21771;SDS011;11047;47.904;8.110;2023-10-31T08:22:59;0.40;;;0.30;;
21771;SDS011;11047;47.904;8.110;2023-10-31T08:25:25;1.65;;;0.40;;
21771;SDS011;11047;47.904;8.110;2023-10-31T08:27:52;0.30;;;0.30;;
21771;SDS011;11047;47.904;8.110;2023-10-31T08:30:20;0.32;;;0.32;;
21771;SDS011;11047;47.904;8.110;2023-10-31T08:32:47;0.45;;;0.28;;
21771;SDS011;11047;47.904;8.110;2023-10-31T08:35:14;0.45;;;0.30;;
21771;SDS011;11047;47.904;8.110;2023-10-31T08:37:41;0.55;;;0.22;;
21771;SDS011;11047;47.904;8.110;2023-10-31T08:40:09;1.02;;;0.60;;
21771;SDS011;11047;47.904;8.110;2023-10-31T08:42:36;1.85;;;0.20;;
21771;SDS011;11047;47.904;8.110;2023-10-31T08:45:03;0.65;;;0.20;;
21771;SDS011;11047;47.904;8.110;2023-10-31T08:47:32;0.80;;;0.32;;
21771;SDS011;11047;47.904;8.110;2023-10-31T08:49:59;1.02;;;0.32;;
21771;SDS011;11047;47.904;8.110;2023-10-31T11:02:27;2.70;;;0.50;;
21771;SDS011;11047;47.904;8.110;2023-10-31T11:04:55;1.50;;;0.40;;
21771;SDS011;11047;47.904;8.110;2023-10-31T11:07:24;1.75;;;0.50;;
21771;SDS011;11047;47.904;8.110;2023-10-31T11:09:52;0.55;;;0.40;;
21771;SDS011;11047;47.904;8.110;2023-10-31T11:12:21;1.92;;;0.60;;
21771;SDS011;11047;47.904;8.110;2023-10-31T11:14:49;2.30;;;0.47;;
21771;SDS011;11047;47.904;8.110;2023-10-31T11:19:54;1.40;;;0.50;;
21771;SDS011;11047;47.904;8.110;2023-10-31T11:22:22;2.95;;;0.80;;
21771;SDS011;11047;47.904;8.110;2023-10-31T11:24:49;0.85;;;0.47;;
21771;SDS011;11047;47.904;8.110;2023-10-31T11:27:18;2.42;;;0.60;;
21771;SDS011;11047;47.904;8.110;2023-10-31T11:29:45;1.75;;;0.47;;
21771;SDS011;11047;47.904;8.110;2023-10-31T11:32:13;0.60;;;0.40;;
21771;SDS011;11047;47.904;8.110;2023-10-31T11:34:41;0.68;;;0.68;;
21771;SDS011;11047;47.904;8.110;2023-10-31T11:37:22;3.70;;;0.60;;
21771;SDS011;11047;47.904;8.110;2023-10-31T11:42:47;2.42;;;0.73;;
21771;SDS011;11047;47.904;8.110;2023-10-31T11:45:25;1.45;;;1.30;;
21771;SDS011;11047;47.904;8.110;2023-10-31T11:47:53;4.05;;;0.60;;
21771;SDS011;11047;47.904;8.110;2023-10-31T11:50:21;1.55;;;0.40;;
21771;SDS011;11047;47.904;8.110;2023-10-31T11:53:00;0.60;;;0.52;;
21771;SDS011;11047;47.904;8.110;2023-10-31T11:55:41;1.63;;;0.60;;
21771;SDS011;11047;47.904;8.110;2023-10-31T11:58:12;1.17;;;0.47;;
21771;SDS011;11047;47.904;8.110;2023-10-31T12:00:40;2.30;;;0.65;;
21771;SDS011;11047;47.904;8.110;2023-10-31T12:03:07;3.10;;;0.40;;
21771;SDS011;11047;47.904;8.110;2023-10-31T12:05:34;0.77;;;0.30;;
21771;SDS011;11047;47.904;8.110;2023-10-31T12:08:03;1.52;;;0.63;;
21771;SDS011;11047;47.904;8.110;2023-10-31T12:10:30;2.22;;;0.47;;
21771;SDS011;11047;47.904;8.110;2023-10-31T12:12:57;0.73;;;0.50;;
21771;SDS011;11047;47.904;8.110;2023-10-31T12:15:25;0.65;;;0.60;;
21771;SDS011;11047;47.904;8.110;2023-10-31T12:17:52;1.98;;;0.57;;
21771;SDS011;11047;47.904;8.110;2023-10-31T12:20:23;0.60;;;0.40;;
21771;SDS011;11047;47.904;8.110;2023-10-31T12:23:00;0.50;;;0.40;;
21771;SDS011;11047;47.904;8.110;2023-10-31T12:25:30;1.45;;;0.60;;
21771;SDS011;11047;47.904;8.110;2023-10-31T12:28:00;1.40;;;0.50;;
21771;SDS011;11047;47.904;8.110;2023-10-31T12:30:27;1.98;;;0.60;;
21771;SDS011;11047;47.904;8.110;2023-10-31T12:32:54;1.50;;;0.60;;
21771;SDS011;11047;47.904;8.110;2023-10-31T12:35:24;1.50;;;0.70;;
21771;SDS011;11047;47.904;8.110;2023-10-31T12:37:54;1.63;;;0.52;;
21771;SDS011;11047;47.904;8.110;2023-10-31T12:40:24;2.10;;;0.63;;
21771;SDS011;11047;47.904;8.110;2023-10-31T12:42:51;2.15;;;0.60;;
21771;SDS011;11047;47.904;8.110;2023-10-31T12:45:19;4.50;;;0.40;;
21771;SDS011;11047;47.904;8.110;2023-10-31T12:47:59;1.65;;;0.60;;
21771;SDS011;11047;47.904;8.110;2023-10-31T12:50:27;1.48;;;0.47;;
21771;SDS011;11047;47.904;8.110;2023-10-31T12:52:54;0.57;;;0.50;;
21771;SDS011;11047;47.904;8.110;2023-10-31T12:55:24;0.40;;;0.40;;
21771;SDS011;11047;47.904;8.110;2023-10-31T12:57:52;0.43;;;0.43;;
21771;SDS011;11047;47.904;8.110;2023-10-31T13:00:20;0.65;;;0.57;;
21771;SDS011;11047;47.904;8.110;2023-10-31T13:02:50;0.55;;;0.40;;
21771;SDS011;11047;47.904;8.110;2023-10-31T13:05:24;1.23;;;0.30;;
21771;SDS011;11047;47.904;8.110;2023-10-31T13:07:54;1.85;;;0.40;;
21771;SDS011;11047;47.904;8.110;2023-10-31T13:10:23;1.75;;;0.50;;
21771;SDS011;11047;47.904;8.110;2023-10-31T13:12:51;0.40;;;0.40;;
21771;SDS011;11047;47.904;8.110;2023-10-31T13:15:19;3.65;;;0.73;;
21771;SDS011;11047;47.904;8.110;2023-10-31T13:17:47;1.55;;;0.60;;
21771;SDS011;11047;47.904;8.110;2023-10-31T13:20:14;0.40;;;0.40;;
21771;SDS011;11047;47.904;8.110;2023-10-31T13:22:43;1.63;;;0.55;;
21771;SDS011;11047;47.904;8.110;2023-10-31T13:25:11;3.13;;;0.77;;
21771;SDS011;11047;47.904;8.110;2023-10-31T13:27:40;4.25;;;0.68;;
21771;SDS011;11047;47.904;8.110;2023-10-31T13:30:08;5.25;;;0.95;;
21771;SDS011;11047;47.904;8.110;2023-10-31T13:32:36;4.72;;;0.80;;
21771;SDS011;11047;47.904;8.110;2023-10-31T13:35:04;2.15;;;0.82;;
21771;SDS011;11047;47.904;8.110;2023-10-31T13:37:31;1.50;;;0.40;;
21771;SDS011;11047;47.904;8.110;2023-10-31T13:39:59;1.55;;;0.60;;
21771;SDS011;11047;47.904;8.110;2023-10-31T13:42:26;0.20;;;0.20;;
21771;SDS011;11047;47.904;8.110;2023-10-31T13:44:55;0.20;;;0.20;;
21771;SDS011;11047;47.904;8.110;2023-10-31T13:47:22;0.43;;;0.30;;
21771;SDS011;11047;47.904;8.110;2023-10-31T13:49:48;7.05;;;0.88;;
21771;SDS011;11047;47.904;8.110;2023-10-31T13:52:15;0.20;;;0.20;;
21771;SDS011;11047;47.904;8.110;2023-10-31T13:54:42;0.82;;;0.30;;
21771;SDS011;11047;47.904;8.110;2023-10-31T13:57:09;8.30;;;1.17;;
21771;SDS011;11047;47.904;8.110;2023-10-31T13:59:36;7.05;;;1.23;;
21771;SDS011;11047;47.904;8.110;2023-10-31T14:02:05;2.97;;;0.40;;
21771;SDS011;11047;47.904;8.110;2023-10-31T14:04:31;2.38;;;0.40;;
21771;SDS011;11047;47.904;8.110;2023-10-31T14:06:59;2.50;;;0.40;;
21771;SDS011;11047;47.904;8.110;2023-10-31T14:09:26;0.30;;;0.30;;
21771;SDS011;11047;47.904;8.110;2023-10-31T14:11:55;0.22;;;0.22;;
21771;SDS011;11047;47.904;8.110;2023-10-31T14:14:22;0.13;;;0.13;;
21771;SDS011;11047;47.904;8.110;2023-10-31T14:16:49;0.28;;;0.20;;
21771;SDS011;11047;47.904;8.110;2023-10-31T14:19:17;0.20;;;0.20;;
21771;SDS011;11047;47.904;8.110;2023-10-31T14:21:44;0.15;;;0.15;;
21771;SDS011;11047;47.904;8.110;2023-10-31T14:24:11;0.98;;;0.40;;
21771;SDS011;11047;47.904;8.110;2023-10-31T14:26:38;0.38;;;0.30;;
21771;SDS011;11047;47.904;8.110;2023-10-31T14:29:05;2.38;;;0.32;;
21771;SDS011;11047;47.904;8.110;2023-10-31T14:31:37;0.40;;;0.40;;
21771;SDS011;11047;47.904;8.110;2023-10-31T14:34:05;0.43;;;0.28;;
21771;SDS011;11047;47.904;8.110;2023-10-31T14:36:33;0.80;;;0.20;;
21771;SDS011;11047;47.904;8.110;2023-10-31T14:39:00;0.20;;;0.20;;
21771;SDS011;11047;47.904;8.110;2023-10-31T14:41:27;0.75;;;0.30;;
21771;SDS011;11047;47.904;8.110;2023-10-31T14:43:58;0.20;;;0.17;;
21771;SDS011;11047;47.904;8.110;2023-10-31T14:46:25;0.22;;;0.20;;
21771;SDS011;11047;47.904;8.110;2023-10-31T14:48:52;0.68;;;0.17;;
21771;SDS011;11047;47.904;8.110;2023-10-31T14:51:18;0.30;;;0.30;;
21771;SDS011;11047;47.904;8.110;2023-10-31T14:53:47;0.63;;;0.30;;
21771;SDS011;11047;47.904;8.110;2023-10-31T14:56:14;0.32;;;0.32;;
21771;SDS011;11047;47.904;8.110;2023-10-31T14:58:41;0.30;;;0.30;;
21771;SDS011;11047;47.904;8.110;2023-10-31T15:01:07;0.30;;;0.30;;
21771;SDS011;11047;47.904;8.110;2023-10-31T15:03:34;0.30;;;0.30;;
21771;SDS011;11047;47.904;8.110;2023-10-31T15:06:01;0.47;;;0.40;;
21771;SDS011;11047;47.904;8.110;2023-10-31T15:08:29;0.40;;;0.40;;
21771;SDS011;11047;47.904;8.110;2023-10-31T15:10:57;0.20;;;0.20;;
21771;SDS011;11047;47.904;8.110;2023-10-31T15:13:24;0.50;;;0.40;;
21771;SDS011;11047;47.904;8.110;2023-10-31T15:15:51;2.78;;;0.85;;
21771;SDS011;11047;47.904;8.110;2023-10-31T15:18:19;2.28;;;0.50;;
21771;SDS011;11047;47.904;8.110;2023-10-31T15:20:47;0.55;;;0.40;;
21771;SDS011;11047;47.904;8.110;2023-10-31T15:23:13;0.65;;;0.35;;
21771;SDS011;11047;47.904;8.110;2023-10-31T15:25:40;0.40;;;0.40;;
21771;SDS011;11047;47.904;8.110;2023-10-31T15:28:09;0.35;;;0.35;;
21771;SDS011;11047;47.904;8.110;2023-10-31T15:30:36;0.38;;;0.38;;
21771;SDS011;11047;47.904;8.110;2023-10-31T15:33:03;0.50;;;0.50;;
21771;SDS011;11047;47.904;8.110;2023-10-31T15:35:30;2.03;;;0.30;;
21771;SDS011;11047;47.904;8.110;2023-10-31T15:37:57;0.63;;;0.50;;
21771;SDS011;11047;47.904;8.110;2023-10-31T15:40:23;0.30;;;0.30;;
21771;SDS011;11047;47.904;8.110;2023-10-31T15:42:50;0.60;;;0.40;;
21771;SDS011;11047;47.904;8.110;2023-10-31T15:45:19;0.32;;;0.32;;
21771;SDS011;11047;47.904;8.110;2023-10-31T15:47:46;0.40;;;0.40;;
21771;SDS011;11047;47.904;8.110;2023-10-31T15:50:13;0.30;;;0.30;;
21771;SDS011;11047;47.904;8.110;2023-10-31T15:52:40;0.25;;;0.25;;
21771;SDS011;11047;47.904;8.110;2023-10-31T15:55:07;0.40;;;0.40;;
21771;SDS011;11047;47.904;8.110;2023-10-31T15:57:35;4.03;;;0.28;;
21771;SDS011;11047;47.904;8.110;2023-10-31T16:00:02;0.30;;;0.30;;
21771;SDS011;11047;47.904;8.110;2023-10-31T16:02:30;0.35;;;0.30;;
21771;SDS011;11047;47.904;8.110;2023-10-31T16:04:57;0.32;;;0.32;;
21771;SDS011;11047;47.904;8.110;2023-10-31T16:07:24;0.40;;;0.30;;
21771;SDS011;11047;47.904;8.110;2023-10-31T16:09:52;0.30;;;0.30;;
21771;SDS011;11047;47.904;8.110;2023-10-31T16:12:18;0.32;;;0.32;;
21771;SDS011;11047;47.904;8.110;2023-10-31T16:14:45;0.20;;;0.20;;
21771;SDS011;11047;47.904;8.110;2023-10-31T16:17:12;0.30;;;0.30;;
21771;SDS011;11047;47.904;8.110;2023-10-31T16:19:40;0.20;;;0.20;;
21771;SDS011;11047;47.904;8.110;2023-10-31T16:22:07;0.30;;;0.30;;
21771;SDS011;11047;47.904;8.110;2023-10-31T16:24:35;0.28;;;0.28;;
21771;SDS011;11047;47.904;8.110;2023-10-31T16:27:02;0.30;;;0.30;;
21771;SDS011;11047;47.904;8.110;2023-10-31T16:29:29;0.30;;;0.30;;
21771;SDS011;11047;47.904;8.110;2023-10-31T16:31:56;0.35;;;0.35;;
21771;SDS011;11047;47.904;8.110;2023-10-31T16:34:24;0.47;;;0.40;;
21771;SDS011;11047;47.904;8.110;2023-10-31T16:36:52;1.90;;;0.60;;
21771;SDS011;11047;47.904;8.110;2023-10-31T16:39:19;0.45;;;0.45;;
21771;SDS011;11047;47.904;8.110;2023-10-31T16:41:46;0.52;;;0.52;;
21771;SDS011;11047;47.904;8.110;2023-10-31T16:44:13;0.63;;;0.50;;
21771;SDS011;11047;47.904;8.110;2023-10-31T16:46:42;1.17;;;0.40;;
21771;SDS011;11047;47.904;8.110;2023-10-31T16:49:10;1.27;;;0.32;;
21771;SDS011;11047;47.904;8.110;2023-10-31T16:51:37;1.42;;;0.90;;
21771;SDS011;11047;47.904;8.110;2023-10-31T16:54:06;1.13;;;0.60;;
21771;SDS011;11047;47.904;8.110;2023-10-31T16:56:33;0.70;;;0.70;;
21771;SDS011;11047;47.904;8.110;2023-10-31T16:59:00;0.80;;;0.60;;
21771;SDS011;11047;47.904;8.110;2023-10-31T17:01:27;1.23;;;0.60;;
21771;SDS011;11047;47.904;8.110;2023-10-31T17:03:54;2.30;;;0.60;;
21771;SDS011;11047;47.904;8.110;2023-10-31T17:06:20;0.77;;;0.60;;
21771;SDS011;11047;47.904;8.110;2023-10-31T17:08:47;0.47;;;0.38;;
21771;SDS011;11047;47.904;8.110;2023-10-31T17:11:15;1.88;;;0.52;;
21771;SDS011;11047;47.904;8.110;2023-10-31T17:13:42;0.68;;;0.50;;
21771;SDS011;11047;47.904;8.110;2023-10-31T17:16:09;0.75;;;0.68;;
21771;SDS011;11047;47.904;8.110;2023-10-31T17:18:36;0.70;;;0.50;;
21771;SDS011;11047;47.904;8.110;2023-10-31T17:21:03;0.57;;;0.50;;
21771;SDS011;11047;47.904;8.110;2023-10-31T17:23:31;1.35;;;0.50;;
21771;SDS011;11047;47.904;8.110;2023-10-31T17:25:58;1.10;;;0.70;;